Katsuura, Japan

2:08 AM JST on December 29, 2014 (GMT +0900)
Tokyo (Haneda) International | Change Station
CLOSE
Current Station
Airport
Location: Tokyo,
Elevation: 26 ft
Nearby Weather Stations

Elev 26 ft 35.55 °N, 139.78 °E | Updated 8 minutes ago

Light Rain
Light Rain
43 °F
Feels Like 39 °F
N
6
Wind Variable Wind from NE

Today
High -- | Low -- °F
--% Chance of Precip.
Yesterday
High -- | Low -- °F
Precip. -- in
6:46 AM 4:34 PM
Waxing Crescent, 49% visible
Pressure 29.95 in
Visibility 6.2 miles
Clouds Few 6000 ft
Mostly Cloudy 9000 ft
Windchill 39 °F
Dew Point 28 °F
Humidity 57%
Rainfall 0.00 in
Snow Depth Not available.
UV 0 out of 12
Pollen Not available.
Air Quality Not available.
Flu Activity Not available.
METAR RJTT 281700Z 04005KT 9999 -RA FEW060 BKN090 06/M02 Q1014 NOSIG RMK 1SC060 7AC090 A2997

More Conditions Fewer Conditions

Pressure 29.95 in
Visibility 6.2 miles
Clouds Few 6000 ft
Mostly Cloudy 9000 ft
Windchill 39 °F
Dew Point 28 °F
Humidity 57%
Rainfall 0.00 in
Snow Depth Not available.
UV 0 out of 12
Pollen Not available.
Air Quality Not available.
Flu Activity Not available.
METAR RJTT 281700Z 04005KT 9999 -RA FEW060 BKN090 06/M02 Q1014 NOSIG RMK 1SC060 7AC090 A2997

More Conditions Fewer Conditions

10-Day Weather Forecast

Almanac

Astronomy

Dec. 29, 2014 Rise Set
Actual Time
Civil Twilight
Nautical Twilight
Astronomical Twilight
Moon
Length of Visible Light
Length of Day
Tomorrow will be .
, % of the Moon is Illuminated

Today's Extremes

Country Highs Country Lows

Community

WunderPhotos

Upload Photos

1,781,349 photos uploaded!

WunderBlogs® & News

Nearby

Air Quality

  Air Quality AQ Index Pollutant
Not available.

Snow Depth

Station Depth Elevation

Earthquake Activity

City Distance Mag. Time & Date
Minimum magnitude displayed is 2.5.

Coastal Water Temperatures

Place Temperature

Nearby Weather Stations